Herculaneum, MO (63048)

1:12 PM CST on January 20, 2017 (GMT -0600)
Joachim Golf Club | | Change Station

Elev 387 ft 38.26 °N, 90.39 °W | Updated 60 seconds ago

Overcast
Overcast
53.6 °F
Feels Like 53.6 °F
N
3.2
Wind Variable Wind from SSE

Today
High -- | Low -- °F
--% Chance of Precip.
Yesterday
High -- | Low -- °F
Precip. -- in
Pressure 29.59 in
Visibility 10.0 miles
Clouds Overcast 1500 ft
Dew Point 50 °F
Humidity 86%
Rainfall 0.00 in
Snow Depth Not available.
7:14 AM 5:11 PM
Last Quarter, 42% visible
METAR KCPS 201853Z 19008G15KT 10SM OVC015 12/08 A2959 RMK AO2 SLP020 T01170083
Pressure 29.59 in
Visibility 10.0 miles
Clouds Overcast 1500 ft
Dew Point 50 °F
Humidity 86%
Rainfall 0.00 in
Snow Depth Not available.
7:14 AM 5:11 PM
Last Quarter, 42% visible
METAR KCPS 201853Z 19008G15KT 10SM OVC015 12/08 A2959 RMK AO2 SLP020 T01170083

Get Your Daily Forecast Email!

Thanks for signing up!

Be on the lookout for a verification email in your inbox.

You'll start receiving the daily forecast at 8 AM.

×

10-Day Weather Forecast

Almanac

Astronomy

Jan. 20, 2017 Rise Set
Actual Time
Civil Twilight
Nautical Twilight
Astronomical Twilight
Moon
Length of Visible Light
Length of Day
Tomorrow will be .
, % of the Moon is Illuminated

Today's Extremes

State Highs State Lows

Community

WunderPhotos

Upload Photos

1,962,540 photos uploaded!

WunderBlog® & News

Nearby

Air Quality

  Air Quality AQ Index Pollutant
Not available.

Snow Depth

Station Depth Elevation

Earthquake Activity

City Distance Mag. Time & Date
Minimum magnitude displayed is 2.5.

Coastal Water Temperatures

Place Temperature

Stations

Nearby Weather Stations

Station Location Temp. Windchill Dew Point Humidity Wind Precip. Elev Updated Type
                   

Watches & Warnings

There are currently no watches in effect.